Nearby METAR Reports

 

KMGE - Dobbins Afb/Mari, Georgia, USA
Distance from station: SSW 6mi, 9km
Updated: Fri, 17-Aug-2018 12:56pm EDT
Mostly cloudy
Mostly cloudy
 Wind from SSW
Wind: SSW 8 mph , 13 km/h
Temperature: 82°F , 28°C
Heat Index: 86°F , 30°C
Dew Point: 72°F , 22°C
Humidity: 70%
Barometer: 30.18 inHg , 1022 hPa
Clouds: Mostly cloudy
Visibility: 10 miles , 16 km
Cloud details: Partly cloudy 1500 ft
Mostly cloudy 3000 ft
Mostly cloudy 8000 ft
Mostly cloudy 25000 ft
2018/08/17 16:56 KMGE 171656Z 21007KT 10SM SCT015 BKN030 BKN080 BKN250 28/22 A3018 RMK AO2A SLP210 T02780218 $
KRYY - Marietta Mccolum, Georgia, USA
Distance from station: WNW 6mi, 10km
Updated: Fri, 17-Aug-2018 12:48pm EDT
Mostly cloudy
Mostly cloudy
 Wind from S
Wind: S 8 mph , 13 km/h
Temperature: 81°F , 27°C
Heat Index: 85°F , 29°C
Dew Point: 72°F , 22°C
Humidity: 74%
Barometer: 30.18 inHg , 1022 hPa
Clouds: Mostly cloudy
Visibility: 10 miles , 16 km
Cloud details: Mostly cloudy 2300 ft
Mostly cloudy 3100 ft
2018/08/17 16:48 KRYY 171648Z 19007KT 10SM BKN023 BKN031 27/22 A3018 RMK AO2 SLP940 T02720222
 
KPDK - Peachtree/Dekalb, Georgia, USA
Distance from station: SE 13mi, 22km
Updated: Fri, 17-Aug-2018 12:53pm EDT
Mostly cloudy
Mostly cloudy
 Wind from SW
Wind: SW 10 mph , 17 km/h
Temperature: 82°F , 28°C
Heat Index: 86°F , 30°C
Dew Point: 72°F , 22°C
Humidity: 70%
Barometer: 30.18 inHg , 1022 hPa
Clouds: Mostly cloudy
Visibility: 10 miles , 16 km
Cloud details: Few Clouds 2400 ft
Mostly cloudy 4700 ft
2018/08/17 16:53 KPDK 171653Z 23009KT 10SM FEW024 BKN047 28/22 A3018 RMK AO2 SLP202 T02830217
KFTY - Atlanta/Fulton, Georgia, USA
Distance from station: S 15mi, 24km
Updated: Fri, 17-Aug-2018 1:00pm EDT
Mostly cloudy
Mostly cloudy
 Wind from S
Wind: S 8 mph , 13 km/h
Temperature: 82°F , 28°C
Heat Index: 87°F , 31°C
Dew Point: 73°F , 23°C
Humidity: 74%
Barometer: 30.17 inHg , 1021.7 hPa
Clouds: Mostly cloudy
Visibility: 10 miles , 16 km
Cloud details: Partly cloudy 2200 ft
Partly cloudy 2900 ft
Mostly cloudy 5500 ft
2018/08/17 17:00 KFTY 171700Z 17007KT 10SM SCT022 SCT029 BKN055 28/23 A3017 RMK AO2 T02780233
 
KCNI - Canton/Cherokee, Georgia, USA
Distance from station: N 23mi, 36km
Updated: Fri, 17-Aug-2018 12:55pm EDT
Mostly cloudy
Mostly cloudy
 Wind from SW
Wind: SW 8 mph , 13 km/h
Temperature: 84°F , 29°C
Heat Index: 85°F , 29°C
Dew Point: 64°F , 18°C
Humidity: 51%
Barometer: 30.19 inHg , 1022.4 hPa
Clouds: Mostly cloudy
Visibility: 10 miles , 16 km
Cloud details: Mostly cloudy 2400 ft
Mostly cloudy 3000 ft
2018/08/17 16:55 KCNI 171655Z AUTO 22007KT 190V250 10SM BKN024 BKN030 29/18 A3019 RMK AO2
KVPC - Cartersville, Georgia, USA
Distance from station: WNW 23mi, 36km
Updated: Fri, 17-Aug-2018 12:53pm EDT
Partly cloudy
Partly cloudy
 Wind from SSW
Wind: SSW 3 mph , 6 km/h
Temperature: 81°F , 27°C
Heat Index: 86°F , 30°C
Dew Point: 73°F , 23°C
Humidity: 79%
Barometer: 30.17 inHg , 1021.7 hPa
Clouds: Partly cloudy
Visibility: 10 miles , 16 km
Cloud details: Few Clouds 2400 ft
Partly cloudy 3000 ft
Partly cloudy 3700 ft
2018/08/17 16:53 KVPC 171653Z AUTO 20003KT 10SM FEW024 SCT030 SCT037 27/23 A3017 RMK AO2 SLP201 T02720228
 
KATL - Atlanta, Georgia, USA
Distance from station: S 25mi, 40km
Updated: Fri, 17-Aug-2018 12:52pm EDT
Mostly cloudy
Mostly cloudy
 Wind from SSW
Wind: SSW 10 mph , 17 km/h
Temperature: 82°F , 28°C
Heat Index: 86°F , 30°C
Dew Point: 70°F , 21°C
Humidity: 66%
Barometer: 30.18 inHg , 1022 hPa
Clouds: Mostly cloudy
Visibility: 10 miles , 16 km
Cloud details: Partly cloudy 2000 ft
Mostly cloudy 4000 ft
Mostly cloudy 5000 ft
2018/08/17 16:52 KATL 171652Z 21009KT 10SM SCT020 BKN040 BKN050 28/21 A3018 RMK AO2 SLP209 MDT CU ALQDS T02780211
KPUJ - Atlanta/Paulding, Georgia, USA
Distance from station: WSW 26mi, 42km
Updated: Fri, 17-Aug-2018 12:55pm EDT
Mostly cloudy
Mostly cloudy
 Wind from SSW
Wind: SSW 3 mph , 6 km/h
Temperature: 81°F , 27°C
Heat Index: 85°F , 29°C
Dew Point: 70°F , 21°C
Humidity: 70%
Barometer: 30.19 inHg , 1022.4 hPa
Clouds: Mostly cloudy
Visibility: 7 miles , 11 km
Cloud details: Mostly cloudy 1800 ft
Mostly cloudy 2700 ft
Mostly cloudy 4200 ft
2018/08/17 16:55 KPUJ 171655Z AUTO 20003KT 7SM BKN018 BKN027 BKN042 27/21 A3019 RMK AO2
 
KLZU - Lawrenceville, Georgia, USA
Distance from station: E 30mi, 48km
Updated: Fri, 17-Aug-2018 12:56pm EDT
Light rain, Mostly cloudy
Light rain, Mostly cloudy
 Wind from SW
Wind: SW 12 mph , 19 km/h
Temperature: 81°F , 27°C
Heat Index: 85°F , 29°C
Dew Point: 72°F , 22°C
Humidity: 74%
Barometer: 30.19 inHg , 1022.4 hPa
Summary: Light rain
Clouds: Mostly cloudy
Visibility: 10 miles , 16 km
Cloud details: Mostly cloudy 2400 ft
2018/08/17 16:56 KLZU 171656Z 23010KT 10SM -RA BKN024 27/22 A3019 RMK AO2 RAB56 SLP221 P0000 T02720222
KJZP - Jasper, Georgia, USA
Distance from station: N 32mi, 51km
Updated: Fri, 17-Aug-2018 12:55pm EDT
Mostly cloudy
Mostly cloudy
 Wind from NW
Wind: NW 6 mph , 9 km/h
Temperature: 81°F , 27°C
Heat Index: 85°F , 29°C
Dew Point: 70°F , 21°C
Humidity: 70%
Barometer: 30.23 inHg , 1023.7 hPa
Clouds: Mostly cloudy
Visibility: 10 miles , 16 km
Cloud details: Partly cloudy 2000 ft
Partly cloudy 2700 ft
Mostly cloudy 4300 ft
2018/08/17 16:55 KJZP 171655Z AUTO 32005KT 10SM SCT020 SCT027 BKN043 27/21 A3023 RMK AO2 T02710210 PNO
 
KCZL - Calhoun, Georgia, USA
Distance from station: NW 40mi, 65km
Updated: Fri, 17-Aug-2018 12:55pm EDT
Mostly cloudy
Mostly cloudy
 Wind from W
Wind: W 6 mph , 9 km/h
Temperature: 81°F , 27°C
Heat Index: 85°F , 29°C
Dew Point: 72°F , 22°C
Humidity: 74%
Barometer: 30.17 inHg , 1021.7 hPa
Clouds: Mostly cloudy
Visibility: 10 miles , 16 km
Cloud details: Mostly cloudy 4600 ft
Mostly cloudy 6000 ft
Mostly cloudy 6500 ft
2018/08/17 16:55 KCZL 171655Z AUTO 28005KT 10SM BKN046 BKN060 BKN065 27/22 A3017 RMK AO2
KGVL - Gainesville, Georgia, USA
Distance from station: ENE 42mi, 68km
Updated: Fri, 17-Aug-2018 12:53pm EDT
Overcast
Overcast
 Wind from WSW
Wind: WSW 8 mph , 13 km/h
Temperature: 82°F , 28°C
Heat Index: 87°F , 31°C
Dew Point: 73°F , 23°C
Humidity: 74%
Barometer: 30.20 inHg , 1022.7 hPa
Clouds: Overcast
Visibility: 10 miles , 16 km
Cloud details: Partly cloudy 2500 ft
Mostly cloudy 3200 ft
Overcast 8500 ft
2018/08/17 16:53 KGVL 171653Z AUTO 25007KT 10SM SCT025 BKN032 OVC085 28/23 A3020 RMK AO2 RAB38E48 SLP211 P0000 T02780228
 
KHMP - Hampton, Georgia, USA
Distance from station: SSE 43mi, 70km
Updated: Fri, 17-Aug-2018 12:55pm EDT
Partly cloudy
Partly cloudy
 Wind from WSW
Wind: WSW 3 mph , 6 km/h
Temperature: 82°F , 28°C
Heat Index: 86°F , 30°C
Dew Point: 70°F , 21°C
Humidity: 66%
Barometer: 30.19 inHg , 1022.4 hPa
Clouds: Partly cloudy
Visibility: 10 miles , 16 km
Cloud details: Partly cloudy 2700 ft
Partly cloudy 3200 ft
Partly cloudy 6500 ft
2018/08/17 16:55 KHMP 171655Z AUTO 24003KT 10SM SCT027 SCT032 SCT065 28/21 A3019 RMK AO2 T02790205
KCVC - Covington, Georgia, USA
Distance from station: ESE 45mi, 72km
Updated: Fri, 17-Aug-2018 12:55pm EDT
Mostly cloudy
Mostly cloudy
 Wind from calm
Wind: Calm
Temperature: 86°F , 30°C
Heat Index: 92°F , 33°C
Dew Point: 72°F , 22°C
Humidity: 62%
Barometer: 30.18 inHg , 1022 hPa
Clouds: Mostly cloudy
Visibility: 7 miles , 11 km
Cloud details: Mostly cloudy 2400 ft
Mostly cloudy 3000 ft
2018/08/17 16:55 KCVC 171655Z AUTO 00000KT 7SM BKN024 BKN030 30/22 A3018 RMK AO2 PNO
 
KFFC - Peachtree City, Georgia, USA
Distance from station: S 45mi, 72km
Updated: Fri, 17-Aug-2018 1:03pm EDT
Light rain, Mostly cloudy
Light rain, Mostly cloudy
 Wind from WNW
Wind: WNW 6 mph , 9 km/h
Temperature: 81°F , 27°C
Heat Index: 86°F , 30°C
Dew Point: 73°F , 23°C
Humidity: 79%
Barometer: 30.18 inHg , 1022 hPa
Summary: Light rain
Clouds: Mostly cloudy
Visibility: 1 3/4 miles , 2.8 km
Cloud details: Partly cloudy 2600 ft
Partly cloudy 4100 ft
Mostly cloudy 4900 ft
2018/08/17 17:03 KFFC 171703Z AUTO 29005KT 1 3/4SM -RA SCT026 SCT041 BKN049 27/23 A3018 RMK AO2 RAB01 P0003 T02720233
KCTJ - Carrollton/Gray, Georgia, USA
Distance from station: SW 45mi, 73km
Updated: Fri, 17-Aug-2018 12:50pm EDT
Mostly cloudy
Mostly cloudy
 Wind from SSW
Wind: SSW 7 mph , 11 km/h
Temperature: 81°F , 27°C
Heat Index: 86°F , 30°C
Dew Point: 73°F , 23°C
Humidity: 79%
Barometer: 30.22 inHg , 1023.4 hPa
Clouds: Mostly cloudy
Visibility: 10 miles , 16 km
Cloud details: Partly cloudy 1600 ft
Mostly cloudy 2500 ft
Mostly cloudy 4800 ft
2018/08/17 16:50 KCTJ 171650Z AUTO 20006KT 10SM SCT016 BKN025 BKN048 27/23 A3022 RMK AO2 T02650225
 
KRMG - Rome, Georgia, USA
Distance from station: WNW 46mi, 74km
Updated: Fri, 17-Aug-2018 12:53pm EDT
Overcast
Overcast
 Wind from W
Wind: W 9 mph , 15 km/h
Temperature: 82°F , 28°C
Heat Index: 86°F , 30°C
Dew Point: 72°F , 22°C
Humidity: 70%
Barometer: 30.15 inHg , 1021 hPa
Clouds: Overcast
Visibility: 10 miles , 16 km
Cloud details: Mostly cloudy 3500 ft
Overcast 4400 ft
2018/08/17 16:53 KRMG 171653Z AUTO 28008KT 10SM BKN035 OVC044 28/22 A3015 RMK AO2 SLP198 T02830222
KWDR - Winder/Barrow, Georgia, USA
Distance from station: E 47mi, 76km
Updated: Fri, 17-Aug-2018 12:55pm EDT
Overcast
Overcast
 Wind from WSW
Wind: WSW 3 mph , 6 km/h
Temperature: 82°F , 28°C
Heat Index: 86°F , 30°C
Dew Point: 72°F , 22°C
Humidity: 70%
Barometer: 30.21 inHg , 1023 hPa
Clouds: Overcast
Visibility: 10 miles , 16 km
Cloud details: Partly cloudy 2600 ft
Mostly cloudy 5500 ft
Overcast 7000 ft
2018/08/17 16:55 KWDR 171655Z AUTO 24003KT 10SM SCT026 BKN055 OVC070 28/22 A3021 RMK AO1 LTG DSNT SE
 
KCCO - Newnan, Georgia, USA
Distance from station: SSW 49mi, 80km
Updated: Fri, 17-Aug-2018 12:55pm EDT
Overcast
Overcast
 Wind from WSW
Wind: WSW 6 mph , 9 km/h
Temperature: 84°F , 29°C
Heat Index: 88°F , 31°C
Dew Point: 70°F , 21°C
Humidity: 62%
Barometer: 30.18 inHg , 1022 hPa
Clouds: Overcast
Visibility: 10 miles , 16 km
Cloud details: Partly cloudy 2000 ft
Mostly cloudy 3600 ft
Overcast 5500 ft
2018/08/17 16:55 KCCO 171655Z AUTO 24005KT 10SM SCT020 BKN036 OVC055 29/21 A3018 RMK AO2 T02870212